Data/ora PM10 PM2.5 Temperatura Umidità Pressione Campioni Min ciclo Max ciclo Segnale Wifi
13/06/2024 21:20:25 13.6 3.4 22.1 59.7 1005.5 5454527 26 20472 -70
13/06/2024 21:17:58 12.7 2.6 22.1 60.4 1005.4 5457519 26 20034 -68
13/06/2024 21:15:32 18.1 3 22.1 60.1 1005.6 5457464 26 20006 -72
13/06/2024 21:13:02 9.2 2.3 21.9 60 1005.3 5459246 26 20003 -67
13/06/2024 21:10:34 14.4 2.7 21.8 60.3 1005.1 5458237 26 20006 -70
13/06/2024 21:08:07 16.5 2.6 21.8 60.1 1005.2 5457353 26 20375 -68
13/06/2024 21:05:42 10.8 2.2 21.9 60.1 1005.0 5457385 26 20014 -70
13/06/2024 21:03:16 10.5 2.4 22.1 59.6 1005.4 5457826 26 20007 -71
13/06/2024 21:00:50 12.1 2.3 21.9 59.5 1005.0 5460226 26 20010 -69
13/06/2024 20:58:24 13.4 3 22.2 59.7 1005.3 5456980 26 20011 -70
13/06/2024 20:55:59 13.1 2.3 22.3 58.8 1005.5 5456165 26 20467 -69
13/06/2024 20:53:33 11.6 2.4 22.3 58.9 1005.3 5458305 26 20021 -68
13/06/2024 20:51:07 12.9 2.5 22.2 58.8 1004.9 5460366 26 20006 -68
13/06/2024 20:48:41 9 2.3 22.3 58.9 1005.0 5456762 26 20006 -68
13/06/2024 20:46:15 12 2.2 22.3 58.1 1004.9 5456443 26 20018 -68
13/06/2024 20:43:50 14.9 2.7 22.4 57.6 1005.1 5454826 26 20014 -67
13/06/2024 20:41:24 12.9 2.7 22.5 58 1005.2 5454918 26 19998 -68
13/06/2024 20:38:58 7.9 2.2 22.6 58.3 1005.3 5456497 26 20453 -67
13/06/2024 20:36:33 15.5 2.5 22.4 57.3 1005.0 5461127 26 20002 -68
13/06/2024 20:34:07 11.7 2.3 22.7 57 1005.3 5458747 26 20015 -67
13/06/2024 20:31:41 9.5 2.6 22.8 56.9 1005.3 5459707 26 20077 -68
13/06/2024 20:29:16 11 2.3 22.8 56 1005.2 5458845 26 20014 -67
13/06/2024 20:26:50 9.4 2.3 22.9 55.4 1005.3 5460572 26 20031 -68
13/06/2024 20:24:24 11.6 2.1 22.8 55.5 1005.0 5461622 26 20134 -67
13/06/2024 20:21:59 10.4 2.3 22.9 55 1005.0 5460805 26 20003 -68
13/06/2024 20:19:32 7.1 1.7 23 54.7 1005.3 5480769 26 20002 -68
13/06/2024 20:17:03 9.9 2.2 22.9 54.2 1005.1 5461263 26 20006 -78
13/06/2024 20:14:36 13.5 2 22.9 55.5 1005.2 5462222 26 20071 -71
13/06/2024 20:12:11 15.4 2.3 22.8 55.1 1005.3 5458000 26 20071 -70
13/06/2024 20:09:45 14.3 2.4 22.8 55.5 1005.2 5461974 26 20007 -71
13/06/2024 20:07:19 14.8 2.7 22.7 55.2 1004.9 5462919 26 20002 -76
13/06/2024 20:04:53 10.5 2.2 22.9 54.5 1005.2 5461048 26 20017 -71
13/06/2024 20:02:26 12.8 2.1 22.7 54.8 1004.8 5459555 26 20010 -73
13/06/2024 20:00:01 12 2.6 22.5 54.9 1004.7 5461138 26 20491 -70
13/06/2024 19:57:35 13.5 2.2 22.7 55.1 1005.0 5458414 26 20593 -73
13/06/2024 19:55:09 10.2 2.4 22.7 54.8 1004.9 5459164 26 20106 -72
13/06/2024 19:52:43 11.3 2.5 22.7 54.7 1004.9 5459958 26 20571 -77
13/06/2024 19:50:17 11 1.9 22.8 54.3 1005.0 5461157 26 20649 -73
13/06/2024 19:47:51 10.7 2.4 22.8 54.6 1005.0 5459621 26 20014 -69
13/06/2024 19:45:25 9.8 2.4 22.8 54.5 1004.9 5460754 26 20014 -68
13/06/2024 19:42:59 11.3 1.9 22.8 54.1 1004.9 5459562 26 20013 -68
13/06/2024 19:40:32 15.2 2.4 22.7 54.2 1004.9 5459134 26 20014 -76
13/06/2024 19:38:06 12.2 2 22.6 54 1004.5 5433269 26 20122 -76
13/06/2024 19:35:40 13.9 2.2 22.7 53.7 1004.5 5458655 26 20003 -78
13/06/2024 19:33:14 16.3 2.4 22.9 52.9 1004.8 5461085 26 20083 -70
13/06/2024 19:30:49 11.2 2 22.9 53.8 1004.6 5461887 26 20017 -69
13/06/2024 19:28:23 9.7 1.9 22.8 53 1004.5 5462019 26 20043 -71
13/06/2024 19:25:57 15.2 2.1 22.7 53.1 1004.4 5462166 26 20006 -76
13/06/2024 19:23:31 10.8 2 22.7 53 1004.3 5460632 26 20013 -73
13/06/2024 19:21:04 11.5 2 23 53.6 1004.9 5462987 26 20465 -72
13/06/2024 19:18:37 16.8 3.6 22.9 53.7 1004.8 5461349 26 20034 -69
13/06/2024 19:16:12 12.4 2.1 22.9 53.6 1004.7 5458074 26 20035 -69
13/06/2024 19:13:46 10.4 2.1 23 53 1004.9 5457117 26 20015 -74
13/06/2024 19:11:20 9.4 2 23 53.6 1004.8 5452425 26 20003 -73
13/06/2024 19:08:55 11.6 2.2 23 54.2 1004.7 5457531 26 21122 -71
13/06/2024 19:06:29 11.5 2 23.1 53 1004.7 5455823 26 20006 -71
13/06/2024 19:04:03 13 2.4 22.8 53.1 1004.4 5458274 26 20018 -73
13/06/2024 19:01:37 11 1.8 22.8 53.2 1004.4 5457163 26 20638 -72
13/06/2024 18:59:10 9.5 1.9 23.1 52.8 1004.8 5459884 26 20445 -72
13/06/2024 18:56:44 9.6 1.8 22.8 52.6 1004.3 5459145 26 20021 -70
13/06/2024 18:54:19 11.9 2 23.1 53.3 1004.8 5458255 26 20016 -73
13/06/2024 18:51:53 12.3 2.4 22.9 53 1004.3 5457906 26 20461 -72
13/06/2024 18:49:27 10.3 2 23.2 52.4 1004.8 5457998 26 20452 -72
13/06/2024 18:47:01 11.8 2.3 23.2 52.7 1004.7 5458022 26 20013 -72
13/06/2024 18:44:34 10.7 2.6 23.2 52.1 1004.5 5457217 26 20006 -70
13/06/2024 18:42:08 13.8 1.7 23.3 50.3 1004.4 5454368 26 20041 -71
13/06/2024 18:39:42 8 1.8 23.3 49.8 1004.2 5458729 26 20756 -70
13/06/2024 18:37:16 10.4 1.9 23.7 47.7 1004.8 5457769 26 20007 -70
13/06/2024 18:34:50 6.7 1.5 23.7 44.5 1004.6 5456265 26 20010 -70
13/06/2024 18:32:25 6.3 1.6 23.6 45.8 1004.5 5455087 26 19998 -70
13/06/2024 18:29:59 14.2 1.7 23.3 46.9 1004.1 5457403 26 20058 -70
13/06/2024 18:27:33 7.2 1.7 23.6 47.7 1004.5 5459854 26 20030 -70
13/06/2024 18:25:07 11.6 2.2 23.3 48.1 1004.1 5460270 26 20002 -70
13/06/2024 18:22:42 8.9 2.2 23.2 49.1 1004.3 5458935 26 20487 -70
13/06/2024 18:20:16 14.2 1.9 23.3 48.7 1004.3 5460452 26 20038 -70
13/06/2024 18:17:50 7.9 2.3 23.3 49.7 1004.3 5461991 26 20003 -70
13/06/2024 18:15:24 6.4 1.7 23.4 50.1 1004.7 5460728 26 20011 -70
13/06/2024 18:12:59 7.8 2 23.2 49.2 1004.1 5461198 26 20260 -70
13/06/2024 18:10:33 9.1 2.2 23.6 49.8 1004.5 5458861 26 20010 -70
13/06/2024 18:08:07 11.1 2.5 23.6 49.7 1004.1 5457477 26 20006 -70
13/06/2024 18:05:41 6.9 1.6 23.9 49.2 1004.4 5451028 26 19998 -70
13/06/2024 18:03:16 9.7 2 23.7 49.3 1004.2 5460552 26 20013 -70
13/06/2024 18:00:50 10.8 1.8 23.9 49.5 1004.6 5459909 26 20429 -70
13/06/2024 17:58:24 8.8 1.5 23.8 49.2 1004.4 5459086 26 20086 -71
13/06/2024 17:55:59 7.6 1.9 23.9 51.2 1004.6 5459520 26 20500 -70
13/06/2024 17:53:33 10.4 2.2 23.9 51.6 1004.6 5458624 26 20014 -70
13/06/2024 17:51:07 12.3 2.4 23.9 51.3 1004.7 5459269 26 20018 -70
13/06/2024 17:48:41 7.2 1.9 23.9 52.3 1004.6 5459468 26 20587 -70
13/06/2024 17:46:15 11.7 2.3 23.9 51.8 1004.3 5459648 26 20010 -70
13/06/2024 17:43:49 10.9 2.4 23.8 52.3 1004.4 5460158 26 20002 -70
13/06/2024 17:41:24 9.2 2.5 23.8 51.5 1004.4 5460961 26 20002 -70
13/06/2024 17:38:58 12.1 1.7 23.7 52.1 1004.4 5460098 26 20017 -70
13/06/2024 17:36:32 10.6 2.3 23.5 51.4 1004.0 5461525 26 20022 -70
13/06/2024 17:34:06 11 2.3 23.9 50.8 1004.2 5461699 26 20002 -70
13/06/2024 17:31:41 11.9 2 24.1 50.7 1004.6 5460837 26 20006 -70
13/06/2024 17:29:15 12 2.3 24.1 50.2 1004.6 5461791 26 20003 -70
13/06/2024 17:26:47 9.6 2 24 50.1 1004.5 5459665 26 20017 -70
13/06/2024 17:24:22 7.6 1.5 24.1 49.2 1004.3 5458881 26 20011 -70
13/06/2024 17:21:56 8.2 2 24.5 48.7 1004.8 5459842 26 20051 -70
13/06/2024 17:19:30 9.1 1.9 24.4 47.9 1004.5 5460502 26 20014 -70
13/06/2024 17:17:03 8.8 1.7 24.4 46 1004.6 5461167 26 20002 -70
13/06/2024 17:14:37 11.6 2.2 24.5 46.8 1004.9 5459904 26 20100 -70
13/06/2024 17:12:12 10.5 1.8 24.1 48.6 1004.4 5459632 26 20002 -69
13/06/2024 17:09:46 10.4 2.1 24.2 49 1004.9 5460649 26 20529 -70
13/06/2024 17:07:20 11.9 2.5 24.4 48.6 1004.8 5459588 26 20015 -70
13/06/2024 17:04:54 7.5 1.9 24.6 47.9 1004.7 5458408 26 20078 -70
13/06/2024 17:02:29 10.6 2.5 24.6 47.7 1004.4 5460464 26 20017 -70
13/06/2024 17:00:03 6.6 1.6 24.9 47.1 1004.3 5460766 26 20018 -70
13/06/2024 16:57:36 7.7 2.3 24.5 46.1 1003.5 5463563 26 20003 -70
13/06/2024 16:55:10 8.2 1.9 25.1 45.9 1004.6 5460842 26 20014 -71
13/06/2024 16:52:44 8.5 1.4 25 44.8 1004.6 5460868 26 20018 -71
13/06/2024 16:50:18 9 1.6 24.8 43.8 1004.3 5461333 26 20534 -71
13/06/2024 16:47:53 6.1 1.6 24.6 44.8 1004.2 5461632 26 20006 -71
13/06/2024 16:45:26 7.3 2.2 24.5 46.7 1004.1 5460401 26 20016 -71
13/06/2024 16:43:00 7.5 1.7 24.5 46.6 1004.2 5462463 26 20037 -71
13/06/2024 16:40:35 7.8 1.8 24.7 44.6 1004.3 5459871 26 20013 -71
13/06/2024 16:38:09 9.2 2 24.7 46.4 1004.5 5461226 26 20022 -71
13/06/2024 16:35:43 10.3 2 24.6 48.7 1004.2 5462320 26 20003 -71
13/06/2024 16:33:18 7 1.8 24.6 49.3 1004.4 5462900 26 20007 -71
13/06/2024 16:30:52 7.2 1.8 24.7 49.4 1004.7 5460774 26 20094 -71
13/06/2024 16:28:08 7.7 1.9 24.5 50.3 1004.3 5461519 26 20007 -71
13/06/2024 16:25:21 9.1 1.7 24.8 49.4 1004.6 5460535 26 20429 -71
13/06/2024 16:22:53 9.2 2.4 24.6 50.3 1004.6 5461318 26 20102 -71
13/06/2024 16:20:28 13.8 2.4 24.5 50 1004.6 5462338 26 20807 -71
13/06/2024 16:18:02 9.2 1.9 24.5 49.2 1004.7 5462099 26 20010 -71
13/06/2024 16:15:36 7.5 1.9 24.2 49.3 1004.6 5462447 26 20691 -71
13/06/2024 16:13:10 9.5 1.9 24.5 50.4 1004.9 5463821 26 20418 -71
13/06/2024 16:10:45 14.1 2.5 24.5 50.7 1004.4 5464190 26 20002 -71
13/06/2024 16:08:19 10.6 1.6 24.5 51.5 1004.7 5461556 26 20015 -71
13/06/2024 16:05:53 10.1 2.1 24.2 50.8 1004.3 5462213 26 20002 -71
13/06/2024 16:03:26 9.8 1.8 24 52.7 1004.4 5462564 26 20417 -71
13/06/2024 16:01:00 12.3 2.5 24.4 51.9 1004.9 5460672 26 20086 -71
13/06/2024 15:58:34 10.7 2.3 24.3 53.5 1004.6 5463201 26 20009 -70
13/06/2024 15:56:08 9.4 2.5 24.5 52.5 1004.7 5462093 26 20097 -70
13/06/2024 15:53:43 10.5 2.5 24.6 54.1 1004.7 5460876 26 20006 -70
13/06/2024 15:51:17 11.8 2.8 24.5 53.7 1004.5 5460771 26 20053 -70
13/06/2024 15:48:51 10.7 2.1 24.6 53.6 1004.4 5461546 26 20080 -70
13/06/2024 15:46:25 13 2.7 24.8 53.8 1004.9 5460155 26 20501 -70
13/06/2024 15:43:59 13.9 2.6 24.8 55.6 1004.9 5460175 26 20055 -70
13/06/2024 15:41:33 11.7 2.5 24.6 56.3 1004.5 5459373 26 20003 -70
13/06/2024 15:39:08 12.5 2.5 24.8 55 1004.9 5456001 26 20006 -70
13/06/2024 15:36:42 15.7 2.6 24.3 54.9 1004.2 5456290 26 20548 -71
13/06/2024 15:34:16 11.3 2.6 24.3 55.6 1004.3 5458606 26 20058 -71
13/06/2024 15:31:51 14.2 2.5 24.7 55.7 1004.7 5458285 26 20494 -71
13/06/2024 15:29:25 12.6 2.8 24.8 53.9 1004.2 5457919 26 20060 -71
13/06/2024 15:26:59 16.4 2.8 25 54.4 1004.6 5459498 26 20757 -71
13/06/2024 15:24:33 12 2.4 24.9 55.7 1004.4 5458215 26 20006 -71
13/06/2024 15:22:07 12.4 2.5 24.7 57.8 1004.3 5459765 26 20024 -71
13/06/2024 15:19:42 11.9 2.5 24.7 57.3 1004.2 5460182 26 20016 -71
13/06/2024 15:17:16 15.3 3 25 58.2 1004.5 5459871 26 20006 -71
13/06/2024 15:14:50 13.4 3.1 24.8 57.8 1004.1 5459814 26 20033 -71
13/06/2024 15:12:23 14.6 2.3 25.1 57.6 1004.5 5459938 26 20366 -71
13/06/2024 15:09:58 14.4 2.7 24.9 56.9 1004.6 5458562 26 20007 -71
13/06/2024 15:07:32 9.8 2.4 24.6 56.6 1004.2 5429344 26 20014 -71
13/06/2024 15:05:06 13.2 2.7 24.5 57 1004.2 5460895 26 20016 -71
13/06/2024 15:02:40 16.3 3 24.8 55.8 1004.7 5459332 26 20006 -71
13/06/2024 15:00:08 14.5 2.7 25.1 54.8 1004.6 5459680 26 20078 -71
13/06/2024 14:57:38 14.2 2.4 25.1 56.1 1004.6 5458959 26 20101 -71
13/06/2024 14:55:12 10.7 2.7 25 55.2 1004.4 5458716 26 20743 -71
13/06/2024 14:52:46 15.1 2.9 25.1 53.6 1004.4 5458299 26 20792 -71
13/06/2024 14:50:20 10.5 2.8 25 53.6 1004.2 5458149 26 20083 -71
13/06/2024 14:47:53 12.7 2 25.2 53.5 1004.5 5457268 26 20006 -71
13/06/2024 14:45:26 13.4 1.9 25 50.6 1004.1 5458476 26 20002 -71
13/06/2024 14:43:01 9.6 2.2 25.2 49.3 1004.3 5460907 26 20083 -71
13/06/2024 14:40:35 12.5 2.7 25 53.3 1004.4 5459358 26 20006 -70
13/06/2024 14:38:09 16.3 2.8 24.6 54.8 1004.0 5461065 26 20006 -71
13/06/2024 14:35:43 13.3 2.2 24.6 55 1003.9 5459260 26 20013 -70
13/06/2024 14:33:18 9.9 2.7 24.5 52.9 1003.9 5460416 26 20018 -70
13/06/2024 14:30:52 11.2 3.2 24.6 55.3 1004.4 5459331 26 20014 -71
13/06/2024 14:28:26 10.7 2.8 24.7 56.1 1004.6 5460637 26 20472 -71
13/06/2024 14:26:01 10.3 2.7 24.8 56 1004.4 5460731 26 20081 -70
13/06/2024 14:23:34 11 2.2 24.9 56.4 1004.3 5460607 26 20461 -70
13/06/2024 14:21:09 12.1 2.8 24.7 57.1 1004.2 5458144 26 20009 -70
13/06/2024 14:18:40 12.8 2.5 24.7 58.7 1004.4 5458352 26 20771 -70
13/06/2024 14:16:14 13.3 3 24.7 60.5 1004.5 5457702 26 20423 -71
13/06/2024 14:13:48 11.3 2.5 24.4 62.7 1004.4 5460702 26 20078 -71
13/06/2024 14:11:23 18.3 2.8 24.2 63.7 1004.5 5460598 26 20006 -70
13/06/2024 14:08:57 18.2 3.2 24.1 64.4 1004.1 5459511 26 20085 -71
13/06/2024 14:06:31 14.9 3.3 24.4 63 1004.1 5459450 26 20009 -70
13/06/2024 14:04:06 13.2 3 24.8 63.4 1004.5 5459494 26 20014 -71
13/06/2024 14:01:40 16.7 3.6 24.8 63 1004.2 5459480 26 20546 -71
13/06/2024 13:59:14 13 3.1 25.1 63.5 1004.4 5460427 26 20523 -71
13/06/2024 13:56:48 11.9 2.7 25.1 64 1004.5 5460005 26 20083 -71
13/06/2024 13:54:22 12.7 2.8 25 63.7 1004.5 5460520 26 20038 -70
13/06/2024 13:51:56 17.4 3.3 24.8 63.6 1004.2 5459902 26 20010 -70
13/06/2024 13:49:31 13.6 3 25.3 62.7 1004.5 5461468 26 20087 -71
13/06/2024 13:47:05 12.9 2.9 25.2 62 1004.2 5459761 26 20025 -70
13/06/2024 13:44:39 9.3 2.7 25.4 61.7 1004.2 5460815 26 20029 -71
13/06/2024 13:42:13 13.4 2.6 25.3 61.4 1004.2 5461733 26 20014 -71
13/06/2024 13:39:48 18.2 2.9 25.3 64.1 1004.5 5459857 26 20006 -71
13/06/2024 13:37:22 14.3 3 25 63.9 1004.2 5456012 26 20372 -71
13/06/2024 13:34:56 14.1 2.6 25.1 63.4 1004.6 5460843 26 20340 -71
13/06/2024 13:32:30 14.1 3.2 25.3 62.6 1004.6 5461173 26 20014 -71
13/06/2024 13:30:05 13.4 3.1 25.8 61.4 1004.6 5462456 26 20038 -71
13/06/2024 13:27:34 11.4 2.4 25.9 60.5 1004.7 5462250 26 20002 -71
13/06/2024 13:25:08 14.7 2.9 25.8 59.9 1004.3 5460679 26 20018 -71
13/06/2024 13:22:43 12.2 2.8 25.8 58.7 1004.3 5460955 26 20002 -71
13/06/2024 13:20:17 13.1 2.7 26.1 58.9 1004.7 5461128 26 20028 -71
13/06/2024 13:17:39 9.2 2.2 25.9 58.6 1004.4 5458606 26 20052 -70
13/06/2024 13:15:03 11.8 2.5 26.1 58 1004.6 5462358 26 19998 -70
13/06/2024 13:12:26 10.9 2.9 26.3 58.6 1004.6 5462147 26 20065 -70
13/06/2024 13:10:00 11.4 2.4 26.2 55.9 1004.1 5462428 26 20146 -70
13/06/2024 13:07:33 8.9 2.8 26.2 57.2 1004.2 5460725 26 20002 -70
13/06/2024 13:04:54 9.3 2.3 26 58.1 1004.1 5458883 26 20473 -70
13/06/2024 13:02:24 14.7 2.8 26 59 1004.0 5462293 26 20074 -70
13/06/2024 12:59:58 10.7 2.7 26.1 58.6 1004.0 5462702 26 20002 -70
13/06/2024 12:57:31 12.7 2.3 26.4 56.9 1004.4 5462411 26 20493 -70
13/06/2024 12:55:03 14.4 2.5 26.2 58.1 1004.2 5461128 26 20010 -70
13/06/2024 12:52:35 10.7 2.6 26 57.4 1003.6 5460367 26 20051 -71
13/06/2024 12:50:08 9.8 2.5 26.4 59 1004.4 5460402 26 20006 -71
13/06/2024 12:47:40 12.2 2.5 26.3 58.3 1004.5 5432852 26 20018 -71
13/06/2024 12:45:14 12.8 3 26.2 58.9 1004.4 5460851 26 20002 -71
13/06/2024 12:42:47 12.5 3.1 26.1 59.6 1004.3 5461730 26 20344 -71
13/06/2024 12:40:18 12.2 2.5 26 60.1 1004.4 5463150 26 20013 -71
13/06/2024 12:37:53 9 2.3 25.9 59.6 1004.4 5461854 26 20468 -71
13/06/2024 12:35:27 17.2 3.1 25.8 59.3 1004.0 5461877 26 20014 -71
13/06/2024 12:33:01 13.6 2.7 26.2 59.1 1004.4 5463582 26 20551 -71
13/06/2024 12:30:35 13.5 2.7 26.3 59 1004.3 5461654 26 20053 -71
13/06/2024 12:28:04 10.6 2.6 25.9 60.7 1004.2 5463532 26 20006 -71
13/06/2024 12:25:37 13.7 2.8 25.6 60.6 1004.0 5461748 26 20002 -71
13/06/2024 12:23:12 13.2 2.4 25.4 60.8 1004.2 5462189 26 20015 -71
13/06/2024 12:20:39 14.6 2.6 25.2 62.8 1004.1 5463699 26 20018 -71
13/06/2024 12:17:58 11.9 2.7 25.3 63 1004.4 5461745 26 19998 -71
13/06/2024 12:15:32 13 2.6 25.1 62.5 1004.3 5459768 26 20696 -71
13/06/2024 12:12:58 13.2 2.5 25.1 65.2 1004.3 5461416 26 20026 -71
13/06/2024 12:10:32 14.3 2.8 24.9 65.4 1004.4 5462091 26 20334 -71
13/06/2024 12:08:06 12.8 2.3 25.3 64.3 1004.4 5459112 26 20484 -71
13/06/2024 12:05:34 13 2.7 25.5 62.9 1004.1 5458331 26 20660 -71
13/06/2024 12:03:07 11.7 2.6 25.4 62.5 1004.2 5458663 26 20349 -71
13/06/2024 12:00:35 10.8 3 26 61 1004.4 5456809 26 20086 -71
13/06/2024 11:58:09 15.8 3 26.1 60.9 1004.1 5458024 26 20453 -71
13/06/2024 11:55:43 13.4 2.3 26.1 61.4 1004.5 5458961 26 20003 -71
13/06/2024 11:53:16 9.7 2.3 26 61.3 1004.4 5458022 26 20460 -71
13/06/2024 11:50:50 12.2 2.7 25.8 62.3 1004.4 5459624 26 20352 -70
13/06/2024 11:48:22 13.1 2.6 25.7 63.1 1004.5 5459964 26 20099 -70
13/06/2024 11:45:55 14.7 2.9 25.4 63.5 1004.1 5457343 26 20578 -70
13/06/2024 11:43:28 11.2 2.8 25.5 62.8 1004.1 5487135 26 20006 -70
13/06/2024 11:41:02 14.9 2.3 26.1 61.5 1004.5 5459615 26 20003 -70
13/06/2024 11:38:32 12.2 2.8 26.1 60.6 1004.1 5459719 26 20088 -71
13/06/2024 11:36:02 13.2 3 25.9 61.4 1004.2 5456558 26 20007 -71
13/06/2024 11:33:32 13.8 3 26.1 60 1004.2 5458310 26 20599 -71
13/06/2024 11:31:06 13.4 2.8 26.3 59 1004.3 5457709 26 20006 -70
13/06/2024 11:28:29 14.6 2.7 26.6 58.6 1004.4 5457811 26 20014 -71
13/06/2024 11:26:03 14.4 2.3 27 58.2 1004.5 5458983 26 20458 -72
13/06/2024 11:23:37 11.1 3 26.9 58.1 1004.4 5458727 26 20006 -71
13/06/2024 11:21:11 10.1 2.6 26.6 59.4 1004.4 5458824 26 20003 -70
13/06/2024 11:18:44 12.3 3 26.3 59.5 1004.3 5456334 26 20018 -71
13/06/2024 11:16:19 14 2.8 26.4 59.3 1004.4 5459497 26 19998 -71
13/06/2024 11:13:43 11.1 2.5 26.3 58.5 1004.4 5460926 26 20021 -71
13/06/2024 11:11:18 15.3 3 26.4 57.5 1004.2 5459659 26 20017 -70
13/06/2024 11:08:50 14.2 2.8 27 55 1004.4 5458112 26 20453 -70
13/06/2024 11:06:14 12.5 2.3 27.6 52.9 1004.3 5458738 26 20007 -71
13/06/2024 11:03:48 14.8 2.8 27.7 54.3 1004.2 5459196 26 20014 -70
13/06/2024 11:01:22 14.3 2.6 27.2 54.5 1003.9 5459063 26 20078 -70
13/06/2024 10:58:55 11.2 2.3 26.9 54.4 1003.9 5459131 26 20015 -72
13/06/2024 10:56:23 9.8 2.5 27 54.1 1004.2 5459778 26 20018 -71
13/06/2024 10:53:56 10.1 2.6 27 52.6 1004.0 5459779 26 20142 -71
13/06/2024 10:51:28 10.6 2.5 27.5 50.7 1004.2 5460311 26 20484 -71
13/06/2024 10:49:00 15.5 2.5 27.5 50.3 1003.9 5460277 26 20021 -71
13/06/2024 10:46:34 11.2 2.3 27.5 52 1004.3 5456821 26 20002 -71
13/06/2024 10:44:05 9.7 2 27.3 52.3 1004.3 5458750 26 20496 -71
13/06/2024 10:41:34 11.4 2.7 27.5 50 1004.0 5459108 26 20002 -70
13/06/2024 10:39:07 8.3 2.2 27.6 50.4 1003.9 5459837 26 20014 -71
13/06/2024 10:36:41 13 2.6 27.6 50.8 1004.2 5459867 26 20018 -71
13/06/2024 10:34:10 11.7 2.7 27 54.3 1004.0 5458456 26 20361 -71
13/06/2024 10:31:43 9.9 2 26.4 55.2 1004.4 5457564 26 20326 -70
13/06/2024 10:29:14 13.7 2.6 25.8 56.4 1004.1 5458782 26 20017 -71
13/06/2024 10:26:48 15.3 2.4 25.9 55.6 1004.3 5460205 26 20017 -70
13/06/2024 10:24:20 11.8 2.8 26.4 54.9 1004.2 5460148 26 20007 -70
13/06/2024 10:21:54 12.2 2.6 26.8 53.2 1004.3 5460684 26 20401 -70
13/06/2024 10:19:29 10.6 2.3 26.2 53.1 1004.0 5459710 26 20086 -70
13/06/2024 10:17:03 13.6 2.5 26.2 53.7 1004.2 5460739 26 20007 -70
13/06/2024 10:14:37 9.8 2.3 26.2 55 1004.3 5461016 26 20005 -70
13/06/2024 10:12:11 15.4 2.5 25.5 57.9 1004.0 5459470 26 20018 -71
13/06/2024 10:09:46 11 2.1 25.3 57.5 1003.9 5459645 26 20132 -71
13/06/2024 10:07:19 11.4 2.6 25.4 57.8 1004.3 5460601 26 20010 -69
13/06/2024 10:04:54 10.3 2.3 25.7 56.6 1004.2 5458274 26 20023 -70
13/06/2024 10:02:28 11.1 2.4 25.9 54.9 1003.8 5459941 26 20079 -69
13/06/2024 09:59:44 13.5 2.7 26.7 53.6 1004.2 5459517 26 20449 -69
13/06/2024 09:57:18 12 2.3 26.8 54.1 1004.1 5459563 26 20100 -71
13/06/2024 09:54:53 14.2 2.3 26.8 51.8 1004.3 5461191 26 20014 -70
13/06/2024 09:52:25 11.8 2.3 26.4 55.1 1004.0 5462077 26 20022 -71
13/06/2024 09:49:59 13 2.3 26.4 54.8 1004.4 5458371 26 20010 -71
13/06/2024 09:47:34 11.3 2.2 26.5 54.1 1004.3 5460815 26 20022 -71
13/06/2024 09:45:07 8.9 2.3 26.7 52.4 1004.0 5459719 26 20017 -69
13/06/2024 09:42:41 12 2.2 26.8 52.9 1004.3 5459622 26 20003 -71
13/06/2024 09:40:16 13 2.5 26.4 52.2 1004.0 5459694 26 20017 -70
13/06/2024 09:37:50 11.2 2.6 26.8 52.6 1004.2 5460162 26 20016 -71
13/06/2024 09:35:24 10.8 2.8 26.5 52.7 1003.9 5460192 26 20002 -71
13/06/2024 09:32:58 11.5 2.7 26.5 52.6 1004.0 5460213 26 20006 -69
13/06/2024 09:30:31 12.9 2.3 26.1 53.2 1003.9 5459846 26 20475 -71
13/06/2024 09:28:05 14.4 2.9 25.9 54.2 1004.3 5461251 26 20014 -70
13/06/2024 09:25:35 12.4 1.8 25.7 54.2 1004.1 5462075 26 21380 -70
13/06/2024 09:23:10 9.9 2.2 25.8 54.6 1004.3 5461385 26 20006 -69
13/06/2024 09:20:43 9.1 2.2 25.8 53.4 1004.0 5461556 26 20014 -71
13/06/2024 09:18:18 8 2.5 26.3 51.4 1004.2 5460490 26 20090 -70
13/06/2024 09:15:51 11 2.4 26.4 51.3 1003.9 5460547 26 20014 -70
13/06/2024 09:13:26 10.4 2.3 26.9 52 1004.3 5462001 26 20017 -70
13/06/2024 09:10:59 10.4 2.4 26.9 52.2 1004.0 5458359 26 20345 -70
13/06/2024 09:08:32 8.9 2.2 26.8 54.7 1004.0 5459908 26 20461 -70
13/06/2024 09:06:06 10.9 2.2 26.3 55.2 1004.1 5460614 26 20002 -71
13/06/2024 09:03:36 9 2.2 25.9 55.8 1004.2 5461800 26 20020 -71
13/06/2024 09:01:09 11.7 2.3 25.7 56.5 1004.2 5460283 26 20464 -70
13/06/2024 08:58:43 10.5 2.2 26 55 1004.2 5462886 26 20079 -70
13/06/2024 08:56:17 9.6 1.9 25.8 57.1 1004.1 5461598 26 20018 -69
13/06/2024 08:53:52 9.6 2.4 25.8 57.1 1004.0 5462999 26 20007 -69
13/06/2024 08:51:26 11.9 2.2 25.7 57.1 1004.1 5461301 26 20003 -69
13/06/2024 08:49:00 11.1 2.1 25.3 59.7 1004.1 5462421 26 20449 -69
13/06/2024 08:46:34 10 1.9 25.1 59.7 1004.1 5460423 26 20449 -70
13/06/2024 08:44:09 8.9 2.1 25 61 1004.3 5460609 26 20002 -70
13/06/2024 08:41:43 13.3 2.5 24.8 61.8 1004.2 5459955 26 20019 -70
13/06/2024 08:39:17 12.2 2.2 24.9 63 1004.1 5459760 26 20049 -70
13/06/2024 08:36:49 10.7 2.4 24.4 64.8 1004.0 5458711 26 20075 -69
13/06/2024 08:34:23 10.8 2.4 24 66.9 1004.2 5461344 26 20007 -70
13/06/2024 08:31:57 13.1 2.4 23.7 67.9 1004.3 5462350 26 20007 -70
13/06/2024 08:29:31 11.2 2.7 23 69.3 1004.0 5462089 26 20018 -70
13/06/2024 08:27:05 11.4 2.2 23.1 67.5 1004.4 5461609 26 20019 -69
13/06/2024 08:24:38 12.5 3 23 67.7 1004.1 5461145 26 20079 -69
13/06/2024 08:22:12 12.7 2.6 23.2 68.6 1004.4 5463043 26 20003 -69
13/06/2024 08:19:45 12.3 2.5 23 68 1004.0 5461056 26 20006 -70
13/06/2024 08:17:19 10.5 2.7 23.1 69.6 1004.1 5460670 26 20372 -70
13/06/2024 08:14:53 11.7 2.8 23.4 67.8 1004.0 5462673 26 20424 -70
13/06/2024 08:12:28 13.3 2.6 23.7 66.5 1003.9 5461913 26 20007 -71
13/06/2024 08:10:02 13.6 2.8 24.1 67.2 1004.3 5461607 26 20346 -71
13/06/2024 08:07:36 9.9 2.7 23.7 69.8 1004.3 5461482 26 20014 -70
13/06/2024 08:05:10 11.4 3 23.6 69.1 1004.2 5460367 26 20007 -70
13/06/2024 08:02:44 7.2 2.2 23.5 70.5 1004.2 5462105 26 20007 -70
13/06/2024 08:00:17 14.1 3.3 23.1 69.8 1004.0 5462256 26 20014 -70
13/06/2024 07:57:51 11.1 2.7 23 70 1004.3 5460692 26 20013 -70
13/06/2024 07:55:25 12.9 2.3 22.9 69.3 1004.0 5462765 26 20006 -70
13/06/2024 07:52:59 12.3 2.5 23 69 1004.3 5460663 26 20042 -70
13/06/2024 07:50:33 12 2.7 23.1 68.1 1004.3 5460624 26 20015 -70
13/06/2024 07:48:07 11.1 2.5 23.3 67.4 1004.3 5463746 26 20065 -70
13/06/2024 07:45:39 15.8 2.9 23.4 67.5 1004.4 5463879 26 20103 -70
13/06/2024 07:43:13 11.5 3.2 23.3 68.5 1004.3 5462674 26 20086 -70
13/06/2024 07:40:46 12.5 3 23.1 69 1004.3 5463221 26 20006 -70
13/06/2024 07:38:20 11.8 2.7 22.8 69.8 1004.1 5490579 26 20528 -69
13/06/2024 07:35:53 11.8 2.3 22.5 70 1004.0 5463824 26 20070 -69
13/06/2024 07:33:15 9.2 2.7 22.3 71 1004.2 5463964 26 20553 -70
13/06/2024 07:30:49 17.7 3.2 22.6 70.1 1004.4 5463156 26 20065 -70
13/06/2024 07:28:23 14.6 2.8 22.6 69.3 1004.1 5462495 26 20472 -70
13/06/2024 07:25:57 10.8 2.9 22.6 69.5 1004.0 5462182 26 20082 -70
13/06/2024 07:23:29 8.6 2.3 22.6 69.7 1003.8 5460023 26 20008 -70
13/06/2024 07:21:02 10.6 2.8 22.5 70 1004.2 5460858 26 20464 -69
13/06/2024 07:18:35 10.4 2.7 22.5 71.7 1004.3 5456013 26 20013 -70
13/06/2024 07:16:09 10.7 2.7 22.6 70.1 1003.9 5456672 26 20026 -70
13/06/2024 07:13:44 12.4 2.5 22.9 69.5 1004.2 5458982 26 20018 -70
13/06/2024 07:11:17 11.2 2.7 22.4 69.9 1004.1 5458316 26 20017 -70
13/06/2024 07:08:51 12 2.8 21.8 72.2 1004.0 5457007 26 20041 -70
13/06/2024 07:06:21 14.1 3 21.9 72.4 1004.1 5457798 26 19999 -70
13/06/2024 07:03:45 11.6 2.9 22 71.2 1003.9 5458288 26 20003 -70
13/06/2024 07:01:18 14.1 2.9 22.1 70.6 1003.8 5455602 26 20078 -70
13/06/2024 06:58:51 13.2 2.7 22.1 69.6 1003.7 5454780 26 19999 -70
13/06/2024 06:56:25 9.7 2.5 22.2 69.6 1003.9 5456971 26 20002 -70
13/06/2024 06:53:59 15.4 2.9 22 70.9 1003.7 5459302 26 20007 -70
13/06/2024 06:51:34 11.4 2.6 21.9 70.9 1003.6 5458942 26 20002 -70
13/06/2024 06:49:08 15.9 2.9 21.9 71.3 1004.0 5458065 26 20033 -69
13/06/2024 06:46:41 10.7 2.8 21.4 72.6 1003.7 5459184 26 20007 -69
13/06/2024 06:44:16 11.3 2.7 21.4 72.4 1003.8 5456422 26 20349 -69
13/06/2024 06:41:50 9.9 2.5 21.3 73.2 1004.0 5457366 26 20078 -69
13/06/2024 06:39:24 14.8 2.8 21 73.9 1004.0 5456367 26 20465 -69
13/06/2024 06:36:57 15.7 2.8 20.4 77.4 1003.8 5455016 26 20002 -69
13/06/2024 06:34:32 20.8 3.5 19.9 79.5 1004.0 5457997 26 20021 -69
13/06/2024 06:32:06 16.7 3.5 19.8 77.5 1003.9 5456334 26 20020 -69
13/06/2024 06:29:36 17.8 3.2 20.2 74 1003.6 5455651 26 20007 -69
13/06/2024 06:27:10 17.3 3.9 20.8 72.1 1003.7 5458024 26 20373 -70
13/06/2024 06:24:44 13.6 3.3 21.4 69.1 1003.9 5456994 26 20173 -69
13/06/2024 06:22:19 11.7 2.8 21.5 69.1 1003.8 5455818 26 20410 -70
13/06/2024 06:19:53 11.6 2.5 22.1 66.1 1003.9 5458355 26 20033 -70
13/06/2024 06:17:27 11.8 2.6 22.5 66.3 1004.2 5458029 26 20302 -70
13/06/2024 06:15:00 12.5 2.5 22.3 67 1004.2 5458721 26 20002 -71
13/06/2024 06:12:35 13.6 3.3 22 67.2 1004.3 5457226 26 20361 -71
13/06/2024 06:10:09 11.8 2.9 21.8 67.6 1004.2 5456908 26 20007 -70
13/06/2024 06:07:43 9.6 2.8 21.7 67.1 1003.8 5457242 26 20469 -70
13/06/2024 06:05:18 12.1 2.8 22 65 1003.7 5459036 26 20083 -70
13/06/2024 06:02:52 9.2 3 22.4 64.3 1003.6 5459056 26 20082 -70
13/06/2024 06:00:26 9.1 2.5 22.6 65.3 1003.8 5460026 26 20015 -70
13/06/2024 05:58:01 11.5 3.2 22 66.4 1003.6 5458811 26 20364 -70
13/06/2024 05:55:35 12 2.9 21.6 68.8 1004.0 5458238 26 20018 -70
13/06/2024 05:53:09 8.7 2.3 20.9 70 1003.6 5457121 26 20775 -70
13/06/2024 05:50:43 11.1 2.8 21.1 68.1 1003.9 5457694 26 20006 -70
13/06/2024 05:48:17 12.3 5.3 21.1 68.4 1003.3 5460487 26 20536 -70
13/06/2024 05:45:52 12.4 3 21.7 66.5 1003.8 5457943 26 20002 -70
13/06/2024 05:43:26 12.8 2.6 21.8 67.3 1003.9 5457548 26 20006 -70
13/06/2024 05:41:00 12.5 2.4 21.6 66 1003.5 5459688 26 20391 -70
13/06/2024 05:38:35 8 3 21.8 66 1003.6 5457030 26 20002 -70
13/06/2024 05:36:07 15.6 3.1 21.7 67.2 1003.5 5459630 26 20018 -70
13/06/2024 05:33:41 8.1 2.3 21.4 67.9 1003.5 5459009 26 20453 -70
13/06/2024 05:31:12 13 3 21.3 68.5 1003.6 5460956 26 20002 -70
13/06/2024 05:28:46 9 2.4 21.1 68.7 1003.4 5458509 26 20422 -70
13/06/2024 05:26:19 16.9 2.6 21.2 67.4 1003.6 5459583 26 20693 -70
13/06/2024 05:23:52 11.1 2.5 21.5 67.3 1003.9 5457837 26 20048 -70
13/06/2024 05:21:25 10.8 2.4 21.3 68.4 1003.6 5458813 26 20555 -70
13/06/2024 05:18:46 11 2.8 21.2 69.1 1003.8 5461165 26 20119 -70
13/06/2024 05:16:20 10 2.2 20.9 70.4 1003.6 5461165 26 20006 -70
13/06/2024 05:13:46 12.8 2.4 20.7 69.5 1003.6 5459682 26 20022 -70
13/06/2024 05:11:20 9.5 2.4 20.7 72.8 1004.0 5458462 26 20095 -70
13/06/2024 05:08:55 12.8 2.5 20.3 71.7 1004.0 5457338 26 20465 -70
13/06/2024 05:06:28 14.3 2.5 20.4 69.8 1003.9 5458192 26 20015 -70
13/06/2024 05:04:01 10 2.4 20.7 69.1 1003.8 5459224 26 20011 -70
13/06/2024 05:01:35 9.4 2.5 20.7 69.2 1003.7 5459150 26 20682 -70
13/06/2024 04:59:09 11.7 2.5 20.8 69.1 1004.0 5462028 26 20007 -70
13/06/2024 04:56:43 12.2 2.3 20.8 69.5 1003.9 5461164 26 20326 -70
13/06/2024 04:54:17 9.8 3.1 20.9 67.7 1003.9 5459506 26 20014 -70
13/06/2024 04:51:51 10.8 2 20.9 67.6 1003.4 5458583 26 20006 -70
13/06/2024 04:49:25 9.1 2.5 21.3 67.2 1003.9 5460152 26 20002 -70
13/06/2024 04:47:00 10.7 2.4 21.1 68.1 1003.5 5460932 26 20019 -70
13/06/2024 04:44:34 9.3 2.3 21.1 67.4 1003.5 5460290 26 20098 -71
13/06/2024 04:42:08 8.3 2 21.4 67.1 1003.7 5459387 26 20010 -70
13/06/2024 04:39:43 14 2.8 21.3 67.3 1003.5 5459791 26 20483 -70
13/06/2024 04:37:17 9.2 2 21.2 68 1003.5 5457334 26 20007 -71
13/06/2024 04:34:50 8.3 2.8 21.2 68.8 1003.8 5458937 26 20003 -70
13/06/2024 04:32:25 10.1 2.2 21.3 67.9 1003.6 5460202 26 20468 -71
13/06/2024 04:29:59 7.5 2.2 21.5 67.1 1003.9 5458815 26 20073 -70
13/06/2024 04:27:33 10.8 2 21.6 66.9 1003.8 5458384 26 20003 -70
13/06/2024 04:25:07 13.6 2.5 21.7 66 1003.8 5461681 26 20057 -70
13/06/2024 04:22:41 11.4 2.5 21.5 67.3 1003.4 5461214 26 20007 -71
13/06/2024 04:20:15 12.7 2.1 21.5 69 1003.9 5460242 26 20003 -71
13/06/2024 04:17:50 11.7 2.1 21.1 70.6 1003.8 5460794 26 20010 -71
13/06/2024 04:15:23 11.4 2 20.7 71.1 1003.9 5459774 26 20606 -70
13/06/2024 04:12:57 16 2.7 20.5 70.3 1003.5 5459495 26 19999 -70
13/06/2024 04:10:31 14.6 2.1 20.7 69.1 1003.9 5459359 26 20336 -70
13/06/2024 04:08:05 9 2.1 20.7 69.2 1003.7 5456159 26 20006 -70
13/06/2024 04:05:39 9.1 2.2 20.8 69.7 1003.8 5459582 26 20120 -71
13/06/2024 04:03:13 12.7 2.3 20.7 70 1003.8 5456852 26 20006 -71
13/06/2024 04:00:46 14.7 2.2 20.5 70 1003.6 5461063 26 20037 -70
13/06/2024 03:58:20 8.9 2 20.5 69.1 1003.4 5462386 26 20322 -69
13/06/2024 03:55:55 9.9 2.4 20.8 67.9 1003.9 5459878 26 20586 -71
13/06/2024 03:53:28 12.3 1.8 20.8 67.4 1003.6 5457227 26 20026 -71
13/06/2024 03:51:03 11.8 2.6 21.1 66.7 1003.8 5462571 26 20003 -71
13/06/2024 03:48:37 8.3 1.9 21.1 66.4 1003.4 5460374 26 20006 -71
13/06/2024 03:46:11 12.1 2.4 21.2 66 1003.4 5458757 26 20509 -70
13/06/2024 03:43:44 10.8 2.4 21.6 64.9 1003.7 5459217 26 20737 -71
13/06/2024 03:41:18 12.1 2.3 21.7 64.4 1003.4 5458838 26 20055 -72
13/06/2024 03:38:52 14.6 2.4 22 64.8 1003.8 5457809 26 20435 -71
13/06/2024 03:36:26 8.5 2.4 22 64.6 1003.8 5456997 26 20460 -71
13/06/2024 03:34:01 10.7 2 21.8 66.4 1003.8 5457044 26 20139 -71
13/06/2024 03:31:35 13.6 2.3 21.5 67.9 1003.9 5457651 26 20014 -71
13/06/2024 03:29:09 10.1 2.4 21.4 66.3 1003.9 5456455 26 20103 -70
13/06/2024 03:26:44 10.2 2.2 21.4 64.5 1003.4 5457155 26 20330 -71
13/06/2024 03:24:14 14 2.3 21.8 65.1 1003.8 5458100 26 20022 -70
13/06/2024 03:21:49 11.8 2.5 21.9 63.5 1003.9 5457253 26 20003 -71
13/06/2024 03:19:22 12.1 2.7 21.9 64 1003.7 5457403 26 20022 -71
13/06/2024 03:16:52 12.1 2.2 21.8 66.4 1003.8 5457857 26 20006 -70
13/06/2024 03:14:25 12.6 2.6 21.7 67.7 1004.1 5459814 26 20002 -71
13/06/2024 03:11:59 8.8 2.1 21.3 66.8 1003.5 5458444 26 20007 -70
13/06/2024 03:09:32 11.3 2.4 21.6 65.5 1003.8 5457247 26 20022 -70
13/06/2024 03:07:05 11.2 1.9 21.9 64 1003.8 5458333 26 20022 -71
13/06/2024 03:04:39 7.7 1.9 22.1 62.8 1003.6 5460948 26 20047 -71
13/06/2024 03:02:11 14.2 2.3 22.6 62.6 1003.8 5458900 26 20006 -70
13/06/2024 02:59:44 7.9 1.9 22.6 62.4 1003.6 5458627 26 20003 -70
13/06/2024 02:57:17 10.9 2 22.4 65.5 1003.5 5459513 26 20336 -71
13/06/2024 02:54:50 12.3 2 22.1 67 1004.1 5458151 26 20014 -70
13/06/2024 02:52:24 10.6 2.3 21.4 67.9 1003.6 5457218 26 20003 -72
13/06/2024 02:49:58 9.4 2.1 20.9 70.1 1003.5 5458748 26 20071 -70
13/06/2024 02:47:31 12.5 2.4 20.6 69.5 1003.6 5457852 26 20468 -71
13/06/2024 02:45:05 12.7 2.7 20.8 69.7 1004.0 5457264 26 20072 -71
13/06/2024 02:42:39 11.5 2.1 20.5 69.8 1003.6 5459871 26 20002 -71
13/06/2024 02:40:13 9.9 2.2 20.5 69.9 1003.7 5458903 26 20485 -70
13/06/2024 02:37:47 11.6 2.2 20.7 69.6 1004.1 5458062 26 20014 -70
13/06/2024 02:35:22 9.2 2 20.4 69.7 1003.7 5457258 26 20107 -71
13/06/2024 02:32:56 11.9 2 20.6 69.8 1004.0 5457361 26 20006 -70
13/06/2024 02:30:30 10.6 2.1 20.5 70.5 1004.0 5457268 26 20017 -71
13/06/2024 02:28:04 10.6 1.9 20.5 70.5 1004.0 5459022 26 20083 -71
13/06/2024 02:25:38 8.1 1.9 20.5 70.2 1004.0 5459575 26 20362 -72
13/06/2024 02:23:12 11.5 2.2 20.2 70.3 1003.7 5459373 26 20003 -70
13/06/2024 02:20:47 9 1.9 20.4 70.9 1004.1 5457856 26 20013 -71
13/06/2024 02:18:20 10.8 2 19.9 70.5 1003.3 5431149 26 20007 -71
13/06/2024 02:15:53 11.6 2.2 20.3 71.3 1004.1 5459945 26 20010 -71
13/06/2024 02:13:26 14.8 2.4 20.1 71.1 1003.7 5460669 26 20068 -70
13/06/2024 02:11:00 10.5 2.5 20.1 70.7 1003.6 5459428 26 20022 -70
13/06/2024 02:08:34 10.6 2.3 20.3 70.5 1004.0 5458458 26 20451 -70
13/06/2024 02:06:09 14.9 2.2 20.1 70.3 1003.5 5458446 26 20058 -70
13/06/2024 02:03:43 12.3 2.2 20.2 70 1003.5 5458708 26 20007 -71
13/06/2024 02:01:17 9.8 1.9 20.5 70 1003.9 5457086 26 20340 -71
13/06/2024 01:58:51 11.8 2.2 20.5 69.6 1003.9 5458513 26 20016 -71
13/06/2024 01:56:25 12.8 2.1 20.6 69.8 1004.0 5458681 26 20544 -70
13/06/2024 01:53:59 10.6 2.2 20.6 69.5 1004.1 5458806 26 19999 -70
13/06/2024 01:51:33 11.7 2 20.8 69.6 1004.1 5459281 26 20389 -71
13/06/2024 01:49:07 10.3 2 20.8 69.4 1004.1 5457978 26 20017 -70
13/06/2024 01:46:42 9.4 1.8 20.5 69 1003.7 5457664 26 20631 -71
13/06/2024 01:44:16 13.6 2.1 20.5 69 1003.7 5459540 26 20007 -70
13/06/2024 01:41:50 10.6 2.3 20.5 69.2 1003.6 5458308 26 20075 -71
13/06/2024 01:39:25 11.4 2.4 20.7 69 1003.9 5459024 26 20528 -71
13/06/2024 01:36:59 8.8 1.8 20.8 69.3 1004.1 5459051 26 20017 -71
13/06/2024 01:34:33 11.9 2.4 20.5 69.9 1003.8 5458618 26 20006 -71
13/06/2024 01:32:07 8.7 1.9 20.6 70.2 1004.2 5459474 26 20344 -71
13/06/2024 01:29:42 13.1 2.3 20.5 69.7 1004.1 5459053 26 20006 -71
13/06/2024 01:27:16 10.6 2.1 20.6 69.3 1004.2 5458644 26 20042 -71
13/06/2024 01:24:50 14.6 2.4 20.7 69.1 1004.2 5457028 26 20337 -71
13/06/2024 01:22:25 10 2 20.8 68.3 1004.2 5459581 26 20017 -71
13/06/2024 01:19:59 11 2.1 20.8 67.7 1003.7 5462242 26 20370 -71
13/06/2024 01:17:33 12.8 2.5 21.3 67.3 1004.3 5460371 26 20010 -71
13/06/2024 01:15:07 11.1 2.4 21.2 66.8 1003.7 5458044 26 20100 -72
13/06/2024 01:12:41 8.4 2.2 21.6 66.4 1004.1 5460059 26 20115 -72
13/06/2024 01:10:14 11.6 2.2 21.7 66.5 1004.2 5459690 26 20013 -70
13/06/2024 01:07:48 12 2.4 21.6 67.5 1004.1 5460822 26 20764 -71
13/06/2024 01:05:22 14.4 2.7 21.1 68.7 1003.7 5459285 26 20006 -71
13/06/2024 01:02:56 10.5 2 21.2 68 1004.2 5458606 26 19994 -71
13/06/2024 01:00:30 16.6 2.4 21.3 68.2 1004.2 5460057 26 20074 -70
13/06/2024 00:58:04 8.1 1.9 21.3 67.9 1004.2 5459270 26 20458 -71
13/06/2024 00:55:39 11 1.9 21.3 67.3 1004.2 5459534 26 20018 -71
13/06/2024 00:53:13 11.2 2.3 21.3 67.4 1003.9 5457295 26 20007 -71
13/06/2024 00:50:46 12 2.3 21.2 66.9 1003.9 5459005 26 20022 -72
13/06/2024 00:48:18 10.9 2.2 21.1 67.4 1003.8 5456544 26 20778 -72
13/06/2024 00:45:51 9.7 1.7 21.4 67.3 1004.3 5454162 26 20074 -72
13/06/2024 00:43:25 13.1 2 21.4 66.9 1004.3 5456578 26 20836 -70
13/06/2024 00:40:59 9.7 1.6 21.3 67 1004.1 5461134 26 20047 -72
13/06/2024 00:38:32 10.6 1.9 21.6 66.3 1004.3 5461663 26 20007 -71
13/06/2024 00:36:06 11.4 1.9 21.5 66.2 1003.9 5461809 26 20848 -71
13/06/2024 00:33:39 9 2.2 21.6 65.6 1004.0 5461732 26 20015 -71
13/06/2024 00:31:09 7.1 1.8 21.6 66.5 1004.0 5461213 26 20014 -70
13/06/2024 00:28:43 10 2.1 20.9 67.7 1003.2 5460690 26 20816 -70
13/06/2024 00:26:13 12.5 2 21.3 67.2 1004.2 5458194 26 20010 -70
13/06/2024 00:23:45 10.3 2 21.1 67.3 1004.0 5456148 26 19998 -70
13/06/2024 00:21:18 8.3 2.2 21.4 67.8 1004.3 5462688 26 20084 -70
13/06/2024 00:18:51 11.2 2.5 21 68.5 1003.9 5461977 26 20462 -68
13/06/2024 00:16:25 11.5 2.1 21 68.1 1004.0 5461228 26 20007 -71
13/06/2024 00:13:59 8.3 1.9 20.9 68.6 1004.0 5460045 26 20007 -70
13/06/2024 00:11:32 13.2 2.6 20.8 69.2 1004.0 5455418 26 20635 -72
13/06/2024 00:09:05 8.9 2 20.7 69 1004.0 5456667 26 20014 -74
13/06/2024 00:06:38 7.8 1.7 20.9 68.7 1004.4 5458249 26 20015 -73
13/06/2024 00:04:11 11.6 2.4 21 67.9 1004.5 5455987 26 20808 -71
13/06/2024 00:01:45 11.6 1.8 21.1 67.1 1004.2 5457692 26 20034 -71